Terminal Aerodrome Forecast
Issued by NWS

Home | Current Version | Previous Version | Text Only | Print | Product List | Glossary On
Versions: 1 2 3 4 5 6 7 8 9 10 11 12 13 14
504
FTPA31 PHFO 061916 AAA
TAFHTO
TAF AMD
PHTO 061916Z 0619/0718 VRB05KT P6SM VCSH SCT025 BKN045
     FM062100 13008KT P6SM VCSH SCT022 BKN045
     FM070300 VRB05KT P6SM VCSH SCT025 BKN045
     FM070700 23004KT P6SM VCSH FEW025 SCT050=

USA.gov is the U.S. government's official web portal to all federal, state and local government web resources and services.